Time;durP1;ratioP1;P1;durP2;ratioP2;P2;SDS_P1;SDS_P2;PMS_P1;PMS_P2;Temp;Humidity;BMP_temperature;BMP_pressure;BME280_temperature;BME280_humidity;BME280_pressure;Samples;Min_cycle;Max_cycle;Signal;HPM_P1;HPM_P2
2022/12/08 00:01:33;;;;;;;21.83;12.05;;;2.90;99.90;;;;;;5048887;28;20037;-72
2022/12/08 00:04:01;;;;;;;11.30;6.40;;;2.90;99.90;;;;;;5048673;28;20074;-72
2022/12/08 00:09:33;;;;;;;13.70;8.43;;;3.00;99.90;;;;;;5052074;28;20047;-72
2022/12/08 00:12:07;;;;;;;6.90;3.97;;;3.00;99.90;;;;;;5050363;28;20037;-72
2022/12/08 00:14:39;;;;;;;10.45;6.22;;;3.00;99.90;;;;;;5047874;28;20029;-72
2022/12/08 00:17:07;;;;;;;8.00;4.45;;;3.00;99.90;;;;;;5050856;28;20441;-72
2022/12/08 00:19:33;;;;;;;3.95;2.10;;;3.00;99.90;;;;;;5048902;28;20499;-72
2022/12/08 00:21:59;;;;;;;42.95;22.40;;;3.00;99.90;;;;;;5048222;28;20120;-72
2022/12/08 00:24:29;;;;;;;16.45;9.20;;;3.00;99.90;;;;;;5049252;28;20437;-72
2022/12/08 00:26:55;;;;;;;13.85;6.47;;;3.00;99.90;;;;;;5050493;28;20124;-72
2022/12/08 00:29:20;;;;;;;12.07;3.22;;;3.00;99.90;;;;;;5049700;28;20121;-72
2022/12/08 00:31:46;;;;;;;12.63;5.03;;;3.00;99.90;;;;;;5050148;28;20033;-72
2022/12/08 00:34:13;;;;;;;53.38;24.45;;;3.00;99.90;;;;;;5067284;22;20040;-63
2022/12/08 00:36:40;;;;;;;9.15;4.32;;;2.90;99.90;;;;;;5072331;28;20036;-64
2022/12/08 00:39:05;;;;;;;9.07;4.05;;;2.90;99.90;;;;;;5074417;28;20442;-64
2022/12/08 00:44:19;;;;;;;39.92;15.18;;;2.90;99.90;;;;;;5071741;28;20106;-63
2022/12/08 00:46:45;;;;;;;22.08;8.85;;;2.90;99.90;;;;;;5077331;28;20127;-64
2022/12/08 00:49:11;;;;;;;15.32;5.05;;;2.80;99.90;;;;;;5074381;28;20032;-64
2022/12/08 00:51:37;;;;;;;16.58;5.82;;;2.80;99.90;;;;;;5074064;28;20090;-64
2022/12/08 00:54:03;;;;;;;30.25;10.80;;;2.80;99.90;;;;;;5055877;28;20483;-64
2022/12/08 00:56:30;;;;;;;14.57;4.90;;;2.80;99.90;;;;;;5071780;28;20051;-63
2022/12/08 00:58:55;;;;;;;17.38;4.80;;;2.70;99.90;;;;;;5074391;28;20044;-63
2022/12/08 01:01:21;;;;;;;4.50;1.65;;;2.70;99.90;;;;;;5073270;28;20566;-64
2022/12/08 01:03:47;;;;;;;6.35;1.92;;;2.70;99.90;;;;;;5074828;28;20116;-63
2022/12/08 01:06:12;;;;;;;17.52;6.25;;;2.70;99.90;;;;;;5076006;28;20035;-63
2022/12/08 01:08:39;;;;;;;8.15;3.40;;;2.70;99.90;;;;;;5074167;28;20040;-63
2022/12/08 01:11:07;;;;;;;16.27;5.95;;;2.60;99.90;;;;;;5072924;28;20397;-63
2022/12/08 01:13:33;;;;;;;4.95;1.95;;;2.60;99.90;;;;;;5039364;28;20029;-64
2022/12/08 01:15:58;;;;;;;6.30;1.88;;;2.60;99.90;;;;;;5053939;28;20032;-63
2022/12/08 01:18:26;;;;;;;11.30;3.15;;;2.60;99.90;;;;;;5071474;28;20036;-63
2022/12/08 01:20:51;;;;;;;2.92;1.98;;;2.60;99.90;;;;;;5072974;28;20028;-63
2022/12/08 01:23:17;;;;;;;6.82;2.25;;;2.50;99.90;;;;;;5074457;28;20410;-63
2022/12/08 01:25:43;;;;;;;7.47;2.53;;;2.50;99.90;;;;;;5073198;28;20111;-63
2022/12/08 01:28:09;;;;;;;6.25;2.90;;;2.50;99.90;;;;;;5073174;28;20039;-63
2022/12/08 01:30:37;;;;;;;5.25;2.70;;;2.50;99.90;;;;;;5073780;28;20612;-64
2022/12/08 01:33:03;;;;;;;6.57;3.13;;;2.50;99.90;;;;;;5074355;28;20037;-63
2022/12/08 01:35:28;;;;;;;6.55;2.55;;;2.50;99.90;;;;;;5073422;28;20036;-63
2022/12/08 01:37:54;;;;;;;5.97;2.75;;;2.50;99.90;;;;;;5072482;28;20113;-63
2022/12/08 01:40:20;;;;;;;7.30;3.17;;;2.40;99.90;;;;;;5073437;28;20448;-64
2022/12/08 01:42:45;;;;;;;7.90;3.65;;;2.50;99.90;;;;;;5073485;28;20501;-64
2022/12/08 01:45:27;;;;;;;6.47;3.22;;;2.40;99.90;;;;;;5072513;28;20131;-63
2022/12/08 01:47:55;;;;;;;;;;;2.40;99.90;;;;;;5072599;28;20068;-63
2022/12/08 01:50:21;;;;;;;6.40;3.60;;;2.40;99.90;;;;;;5072246;28;20404;-63
2022/12/08 01:52:52;;;;;;;6.50;3.75;;;2.40;99.90;;;;;;5073700;28;20082;-63
2022/12/08 01:55:27;;;;;;;5.50;3.60;;;2.50;99.90;;;;;;5072164;28;20111;-63
2022/12/08 01:58:00;;;;;;;7.78;3.70;;;2.50;99.90;;;;;;5072013;28;21398;-64
2022/12/08 02:00:26;;;;;;;5.72;3.17;;;2.50;99.90;;;;;;5078435;28;20050;-63
2022/12/08 02:03:09;;;;;;;5.82;3.53;;;2.60;99.90;;;;;;5055787;28;20131;-63
2022/12/08 02:05:39;;;;;;;11.85;4.30;;;2.60;99.90;;;;;;5072802;28;20493;-64
2022/12/08 02:08:08;;;;;;;5.83;3.57;;;2.60;99.90;;;;;;5069379;28;20036;-63
2022/12/08 02:10:37;;;;;;;7.90;3.70;;;2.60;99.90;;;;;;5071371;28;20352;-63
2022/12/08 02:13:04;;;;;;;6.32;3.80;;;2.70;99.90;;;;;;5069262;28;20039;-63
2022/12/08 02:15:55;;;;;;;9.15;3.75;;;2.70;99.90;;;;;;5068917;28;20495;-64
2022/12/08 02:18:30;;;;;;;9.82;3.95;;;2.80;99.90;;;;;;5072235;28;20033;-63
2022/12/08 02:21:07;;;;;;;6.40;3.47;;;2.80;99.90;;;;;;5071213;28;20095;-63
2022/12/08 02:23:44;;;;;;;9.15;3.70;;;2.80;99.90;;;;;;5072719;28;20507;-63
2022/12/08 02:26:34;;;;;;;7.90;3.30;;;2.80;99.90;;;;;;5054432;28;20053;-63
2022/12/08 02:29:30;;;;;;;8.73;3.42;;;2.90;99.90;;;;;;5073130;28;20111;-63
2022/12/08 02:32:30;;;;;;;7.30;3.10;;;2.90;99.90;;;;;;5072296;28;20044;-63
2022/12/08 02:35:38;;;;;;;6.88;3.05;;;3.00;99.90;;;;;;5089636;28;20043;-63
2022/12/08 02:38:07;;;;;;;7.95;3.20;;;3.00;99.90;;;;;;5063518;28;20036;-63
2022/12/08 02:40:43;;;;;;;5.75;3.00;;;3.00;99.90;;;;;;5072339;28;20040;-63
2022/12/08 02:43:19;;;;;;;5.13;2.67;;;3.00;99.90;;;;;;5057197;28;20439;-63
2022/12/08 02:45:54;;;;;;;6.40;3.00;;;3.10;99.90;;;;;;5070200;28;20689;-63
2022/12/08 02:48:20;;;;;;;5.47;2.95;;;3.00;99.90;;;;;;5069741;28;20085;-64
2022/12/08 02:50:45;;;;;;;8.13;3.00;;;3.10;99.90;;;;;;5072346;28;20033;-63
2022/12/08 02:53:11;;;;;;;4.25;2.75;;;3.10;99.90;;;;;;5071845;28;20028;-63
2022/12/08 02:56:02;;;;;;;5.15;2.88;;;3.10;99.90;;;;;;5080517;28;20162;-63
2022/12/08 02:58:31;;;;;;;6.93;3.10;;;3.10;99.90;;;;;;5052518;28;20394;-63
2022/12/08 03:01:42;;;;;;;7.22;2.90;;;3.10;99.90;;;;;;5058402;28;20078;-64
2022/12/08 03:04:31;;;;;;;4.68;3.50;;;3.10;99.90;;;;;;5064547;28;20050;-63
2022/12/08 03:07:08;;;;;;;7.70;2.92;;;3.10;99.90;;;;;;5067589;28;20067;-63
2022/12/08 03:09:39;;;;;;;6.70;2.83;;;3.10;99.90;;;;;;5072596;28;20032;-64
2022/12/08 03:12:31;;;;;;;8.07;2.80;;;3.10;99.90;;;;;;5052248;28;20086;-64
2022/12/08 03:15:01;;;;;;;9.15;3.15;;;3.10;99.90;;;;;;5070068;28;20033;-63
2022/12/08 03:17:28;;;;;;;6.88;3.17;;;3.20;99.90;;;;;;5071706;28;20036;-63
2022/12/08 03:19:59;;;;;;;6.85;3.15;;;3.20;99.90;;;;;;5072274;28;20084;-63
2022/12/08 03:22:26;;;;;;;;;;;3.20;99.90;;;;;;5070510;28;20082;-63
2022/12/08 03:24:52;;;;;;;5.07;3.22;;;3.20;99.90;;;;;;5070743;28;19920;-63
2022/12/08 03:27:25;;;;;;;8.50;3.65;;;3.20;99.90;;;;;;5070764;28;20440;-63
2022/12/08 03:29:53;;;;;;;6.32;3.80;;;3.20;99.90;;;;;;5070314;28;20169;-63
2022/12/08 03:32:53;;;;;;;6.60;3.70;;;3.30;99.90;;;;;;5069411;28;20036;-63
2022/12/08 03:35:27;;;;;;;5.57;3.78;;;3.20;99.90;;;;;;5070760;28;20040;-63
2022/12/08 03:38:04;;;;;;;6.85;3.63;;;3.30;99.90;;;;;;5056179;28;20468;-63
2022/12/08 03:40:30;;;;;;;6.93;3.95;;;3.30;99.90;;;;;;5072014;28;20037;-63
2022/12/08 03:42:55;;;;;;;9.00;4.25;;;3.30;99.90;;;;;;5051350;28;20052;-63
2022/12/08 03:45:21;;;;;;;7.97;4.00;;;3.30;99.90;;;;;;5070164;28;20068;-63
2022/12/08 03:47:47;;;;;;;6.18;4.63;;;3.30;99.90;;;;;;5064329;28;20123;-63
2022/12/08 03:50:12;;;;;;;6.63;4.53;;;3.30;99.90;;;;;;5052748;28;20116;-63
2022/12/08 03:52:38;;;;;;;7.30;4.60;;;3.30;99.90;;;;;;5070837;28;20037;-63
2022/12/08 03:55:04;;;;;;;8.77;4.63;;;3.30;99.90;;;;;;5070868;28;20044;-63
2022/12/08 03:57:29;;;;;;;10.25;4.90;;;3.30;99.90;;;;;;5067162;28;20040;-63
2022/12/08 03:59:55;;;;;;;10.93;5.13;;;3.30;99.90;;;;;;5069838;28;20045;-63
2022/12/08 04:02:21;;;;;;;10.10;5.18;;;3.30;99.90;;;;;;5069891;28;20040;-64
2022/12/08 04:04:46;;;;;;;8.68;5.13;;;3.30;99.90;;;;;;5081179;28;20057;-64
2022/12/08 04:07:12;;;;;;;7.90;4.68;;;3.30;99.90;;;;;;5070831;28;20397;-64
2022/12/08 04:09:38;;;;;;;8.00;5.45;;;3.30;99.90;;;;;;5052720;28;20396;-64
2022/12/08 04:12:03;;;;;;;8.43;5.25;;;3.30;99.90;;;;;;5049930;28;20214;-64
2022/12/08 04:14:29;;;;;;;8.07;5.32;;;3.30;99.90;;;;;;5071003;28;20036;-64
2022/12/08 04:16:55;;;;;;;10.77;5.60;;;3.30;99.90;;;;;;5069781;28;20047;-64
2022/12/08 04:19:20;;;;;;;8.18;5.80;;;3.40;99.90;;;;;;5071439;28;20106;-64
2022/12/08 04:21:46;;;;;;;7.97;5.45;;;3.40;99.90;;;;;;5070127;28;20063;-64
2022/12/08 04:24:11;;;;;;;11.80;5.43;;;3.40;99.90;;;;;;5070881;28;20489;-64
2022/12/08 04:26:37;;;;;;;7.95;5.57;;;3.40;99.90;;;;;;5051751;28;20466;-64
2022/12/08 04:29:03;;;;;;;10.00;5.50;;;3.40;99.90;;;;;;5071379;28;20078;-64
2022/12/08 04:31:28;;;;;;;11.77;5.80;;;3.40;99.90;;;;;;5050545;28;20040;-64
2022/12/08 04:33:54;;;;;;;9.32;6.00;;;3.40;99.90;;;;;;5069864;28;20083;-64
2022/12/08 04:36:19;;;;;;;10.43;6.10;;;3.40;99.90;;;;;;5051655;28;20032;-64
2022/12/08 04:38:45;;;;;;;10.75;6.13;;;3.40;99.90;;;;;;5071003;28;20040;-64
2022/12/08 04:41:11;;;;;;;10.00;6.05;;;3.40;99.90;;;;;;5070029;28;20048;-63
2022/12/08 04:43:36;;;;;;;10.13;6.18;;;3.40;99.90;;;;;;5052986;28;20598;-64
2022/12/08 04:46:06;;;;;;;10.68;5.47;;;3.40;99.90;;;;;;5069496;28;20035;-63
2022/12/08 04:48:32;;;;;;;7.50;4.95;;;3.40;99.90;;;;;;5070929;28;20071;-64
2022/12/08 04:50:57;;;;;;;10.18;4.72;;;3.40;99.90;;;;;;5053190;28;20075;-63
2022/12/08 04:53:25;;;;;;;11.02;5.30;;;3.50;99.90;;;;;;5060614;28;20186;-63
2022/12/08 04:55:51;;;;;;;7.45;5.03;;;3.40;99.90;;;;;;5069616;28;20043;-63
2022/12/08 04:58:18;;;;;;;9.25;5.13;;;3.40;99.90;;;;;;5070756;28;20036;-64
2022/12/08 05:00:44;;;;;;;8.05;5.15;;;3.40;99.90;;;;;;5068728;28;20797;-64
2022/12/08 05:03:10;;;;;;;8.15;5.25;;;3.50;99.90;;;;;;5050112;28;20073;-64
2022/12/08 05:05:36;;;;;;;8.90;4.47;;;3.50;99.90;;;;;;5033327;28;20042;-63
2022/12/08 05:08:02;;;;;;;8.60;4.97;;;3.50;99.90;;;;;;5070111;28;20271;-63
2022/12/08 05:10:27;;;;;;;8.88;5.00;;;3.50;99.90;;;;;;5065878;28;20056;-63
2022/12/08 05:12:53;;;;;;;8.93;5.28;;;3.50;99.90;;;;;;5066236;28;20501;-63
2022/12/08 05:15:19;;;;;;;12.20;5.53;;;3.50;99.90;;;;;;5069888;28;20037;-63
2022/12/08 05:17:44;;;;;;;8.40;4.80;;;3.50;99.90;;;;;;5062383;28;20489;-63
2022/12/08 05:20:10;;;;;;;7.13;4.20;;;3.50;99.90;;;;;;5071203;28;20085;-63
2022/12/08 05:22:36;;;;;;;7.60;4.05;;;3.50;99.90;;;;;;5049529;28;20040;-63
2022/12/08 05:25:02;;;;;;;6.68;4.03;;;3.50;99.90;;;;;;5072097;28;20394;-64
2022/12/08 05:27:27;;;;;;;6.93;4.00;;;3.50;99.90;;;;;;5072417;28;20032;-64
2022/12/08 05:29:53;;;;;;;6.22;4.30;;;3.50;99.90;;;;;;5081368;28;20528;-63
2022/12/08 05:32:19;;;;;;;6.47;3.80;;;3.50;99.90;;;;;;5070666;28;20078;-63
2022/12/08 05:34:44;;;;;;;5.32;3.88;;;3.50;99.90;;;;;;5074025;28;20265;-63
2022/12/08 05:37:10;;;;;;;5.47;3.10;;;3.50;99.90;;;;;;5073915;28;20036;-63
2022/12/08 05:39:36;;;;;;;6.25;3.40;;;3.40;99.90;;;;;;5056465;28;20051;-63
2022/12/08 05:42:01;;;;;;;5.10;3.28;;;3.40;99.90;;;;;;5072944;28;20040;-65
2022/12/08 05:44:27;;;;;;;5.28;3.50;;;3.40;99.90;;;;;;5059775;28;20032;-64
2022/12/08 05:46:52;;;;;;;5.55;3.40;;;3.40;99.90;;;;;;5054874;28;20048;-64
2022/12/08 05:49:18;;;;;;;6.38;3.28;;;3.50;99.90;;;;;;5074137;28;20040;-64
2022/12/08 05:51:44;;;;;;;5.82;3.30;;;3.40;99.90;;;;;;5070774;28;20024;-64
2022/12/08 05:54:09;;;;;;;4.75;3.00;;;3.40;99.90;;;;;;5062594;28;20039;-64
2022/12/08 05:56:35;;;;;;;4.32;2.72;;;3.40;99.90;;;;;;5073572;28;20400;-63
2022/12/08 05:59:05;;;;;;;4.97;2.75;;;3.40;99.90;;;;;;5055705;28;20040;-63
2022/12/08 06:01:31;;;;;;;4.95;2.85;;;3.40;99.90;;;;;;5053399;28;20036;-63
2022/12/08 06:03:58;;;;;;;7.30;3.00;;;3.40;99.90;;;;;;5072927;28;20044;-64
2022/12/08 06:06:23;;;;;;;4.32;2.95;;;3.40;99.90;;;;;;5055084;28;20116;-64
2022/12/08 06:08:49;;;;;;;5.32;2.80;;;3.40;99.90;;;;;;5073640;28;20103;-64
2022/12/08 06:11:33;;;;;;;6.10;3.28;;;3.40;99.90;;;;;;5069801;28;20067;-64
2022/12/08 06:13:59;;;;;;;4.85;2.63;;;3.40;99.90;;;;;;5084632;28;20033;-63
2022/12/08 06:16:26;;;;;;;5.68;3.38;;;3.40;99.90;;;;;;5075449;28;20033;-64
2022/12/08 06:18:53;;;;;;;6.32;2.97;;;3.40;99.90;;;;;;5072879;28;20032;-63
2022/12/08 06:21:19;;;;;;;4.88;3.10;;;3.40;99.90;;;;;;5068723;28;20687;-64
2022/12/08 06:23:48;;;;;;;5.50;3.38;;;3.40;99.90;;;;;;5080672;28;20051;-64
2022/12/08 06:26:14;;;;;;;5.72;3.10;;;3.40;99.90;;;;;;5073317;28;20071;-63
2022/12/08 06:28:41;;;;;;;4.80;3.22;;;3.40;99.90;;;;;;5072678;28;20042;-64
2022/12/08 06:31:21;;;;;;;5.60;3.20;;;3.40;99.90;;;;;;5082983;28;20032;-63
2022/12/08 06:33:47;;;;;;;5.65;3.35;;;3.40;99.90;;;;;;5071686;28;20029;-64
2022/12/08 06:36:15;;;;;;;4.97;3.25;;;3.40;99.90;;;;;;5069489;28;20418;-64
2022/12/08 06:38:41;;;;;;;6.80;3.97;;;3.40;99.90;;;;;;5054473;28;20093;-66
2022/12/08 06:41:07;;;;;;;6.00;3.60;;;3.40;99.90;;;;;;5057780;28;20048;-64
2022/12/08 06:43:33;;;;;;;7.03;3.75;;;3.40;99.90;;;;;;5072772;28;20044;-64
2022/12/08 06:46:00;;;;;;;5.60;3.60;;;3.40;99.90;;;;;;5054361;28;20036;-64
2022/12/08 06:48:25;;;;;;;5.95;3.60;;;3.40;99.90;;;;;;5072876;28;20044;-65
2022/12/08 06:50:51;;;;;;;7.38;3.70;;;3.40;99.90;;;;;;5072035;28;20163;-64
2022/12/08 06:53:17;;;;;;;6.32;3.63;;;3.50;99.90;;;;;;5066368;28;20743;-64
2022/12/08 06:55:45;;;;;;;4.80;3.60;;;3.40;99.90;;;;;;5068906;28;20115;-64
2022/12/08 06:58:11;;;;;;;6.10;3.65;;;3.40;99.90;;;;;;5064663;28;20086;-64
2022/12/08 07:00:37;;;;;;;8.70;3.70;;;3.40;99.90;;;;;;5053984;28;20173;-64
2022/12/08 07:03:03;;;;;;;6.57;3.50;;;3.40;99.90;;;;;;5047880;28;20040;-64
2022/12/08 07:05:28;;;;;;;7.93;3.83;;;3.40;99.90;;;;;;5050153;28;20036;-63
2022/12/08 07:07:54;;;;;;;5.95;3.20;;;3.40;99.90;;;;;;5071627;28;20171;-63
2022/12/08 07:10:20;;;;;;;5.60;3.42;;;3.30;99.90;;;;;;5053176;28;20036;-63
2022/12/08 07:12:45;;;;;;;6.68;3.55;;;3.30;99.90;;;;;;5080718;28;20035;-63
2022/12/08 07:15:11;;;;;;;5.95;3.60;;;3.30;99.90;;;;;;5064660;28;20495;-63
2022/12/08 07:17:36;;;;;;;6.63;3.60;;;3.30;99.90;;;;;;5071791;28;20036;-63
2022/12/08 07:20:02;;;;;;;6.97;3.58;;;3.30;99.90;;;;;;5048199;28;20041;-63
2022/12/08 07:22:28;;;;;;;6.13;3.60;;;3.30;99.90;;;;;;5070339;28;20040;-63
2022/12/08 07:24:53;;;;;;;8.82;4.10;;;3.40;99.90;;;;;;5070933;28;20506;-63
2022/12/08 07:27:19;;;;;;;5.63;3.80;;;3.30;99.90;;;;;;5063341;28;20040;-63
2022/12/08 07:29:44;;;;;;;6.38;3.63;;;3.40;99.90;;;;;;5070392;28;20533;-63
2022/12/08 07:32:10;;;;;;;4.28;3.28;;;3.40;99.90;;;;;;5066310;28;20218;-63
2022/12/08 07:34:35;;;;;;;5.90;3.40;;;3.40;99.90;;;;;;5064322;28;20029;-63
2022/12/08 07:37:01;;;;;;;9.05;4.22;;;3.30;99.90;;;;;;5066941;28;20460;-63
2022/12/08 07:39:27;;;;;;;7.78;4.10;;;3.30;99.90;;;;;;5070663;28;20032;-64
2022/12/08 07:41:52;;;;;;;8.55;3.85;;;3.30;99.90;;;;;;5068990;28;20457;-64
2022/12/08 07:44:18;;;;;;;5.68;3.60;;;3.30;99.90;;;;;;5065721;28;20032;-64
2022/12/08 07:46:44;;;;;;;5.30;3.35;;;3.30;99.90;;;;;;5067246;28;20036;-64
2022/12/08 07:49:10;;;;;;;5.38;3.35;;;3.30;99.90;;;;;;5084811;28;20040;-64
2022/12/08 07:51:35;;;;;;;5.32;3.15;;;3.20;99.90;;;;;;5073177;28;20040;-64
2022/12/08 07:54:01;;;;;;;5.35;2.95;;;3.20;99.90;;;;;;5066266;28;20123;-64
2022/12/08 07:56:28;;;;;;;5.18;3.20;;;3.20;99.90;;;;;;5067442;28;20043;-64
2022/12/08 07:58:53;;;;;;;3.75;2.95;;;3.20;99.90;;;;;;5069322;28;20032;-64
2022/12/08 08:01:31;;;;;;;4.15;2.72;;;3.20;99.90;;;;;;5068903;28;20551;-64
2022/12/08 08:04:00;;;;;;;7.00;2.90;;;3.20;99.90;;;;;;5067667;28;20036;-64
2022/12/08 08:06:26;;;;;;;6.93;3.33;;;3.20;99.90;;;;;;5068462;28;20028;-64
2022/12/08 08:08:52;;;;;;;4.72;2.88;;;3.20;99.90;;;;;;5069747;28;20052;-64
2022/12/08 08:11:18;;;;;;;5.10;3.15;;;3.20;99.90;;;;;;5068886;28;20482;-64
2022/12/08 08:13:43;;;;;;;5.07;3.33;;;3.20;99.90;;;;;;5069970;28;20040;-64
2022/12/08 08:16:10;;;;;;;6.43;3.50;;;3.20;99.90;;;;;;5052347;28;20075;-64
2022/12/08 08:18:36;;;;;;;5.90;3.10;;;3.20;99.90;;;;;;5052073;28;20032;-64
2022/12/08 08:21:02;;;;;;;6.50;3.20;;;3.20;99.90;;;;;;5043598;28;20119;-63
2022/12/08 08:23:29;;;;;;;4.80;2.85;;;3.20;99.90;;;;;;5064867;28;20040;-63
2022/12/08 08:25:57;;;;;;;7.38;2.90;;;3.10;99.90;;;;;;5067196;28;20062;-64
2022/12/08 08:28:22;;;;;;;3.40;2.30;;;3.20;99.90;;;;;;5069215;28;20033;-63
2022/12/08 08:30:48;;;;;;;5.60;2.20;;;3.10;99.90;;;;;;5069791;28;20035;-63
2022/12/08 08:33:13;;;;;;;4.40;2.10;;;3.20;99.90;;;;;;5069148;28;20482;-63
2022/12/08 08:35:41;;;;;;;3.25;1.92;;;3.10;99.90;;;;;;5064040;28;20036;-63
2022/12/08 08:38:06;;;;;;;3.83;2.20;;;3.10;99.90;;;;;;5079722;28;20047;-63
2022/12/08 08:40:32;;;;;;;3.40;2.00;;;3.10;99.90;;;;;;5070438;28;20032;-63
2022/12/08 08:43:00;;;;;;;2.15;1.65;;;3.10;99.90;;;;;;5070365;28;20040;-63
2022/12/08 08:45:26;;;;;;;5.57;1.90;;;3.10;99.90;;;;;;5068955;28;20066;-64
2022/12/08 08:47:51;;;;;;;3.63;1.90;;;3.10;99.90;;;;;;5079291;28;20044;-63
2022/12/08 08:50:17;;;;;;;2.47;1.52;;;3.10;99.90;;;;;;5070464;28;20036;-64
2022/12/08 08:52:43;;;;;;;2.90;1.58;;;3.20;99.90;;;;;;5050929;28;20041;-63
2022/12/08 08:55:09;;;;;;;3.13;1.40;;;3.10;99.90;;;;;;5064869;28;20028;-63
2022/12/08 08:57:34;;;;;;;2.63;1.58;;;3.20;99.90;;;;;;5064135;28;20029;-64
2022/12/08 09:00:00;;;;;;;3.45;1.60;;;3.20;99.90;;;;;;5073371;28;20062;-64
2022/12/08 09:02:26;;;;;;;4.00;1.50;;;3.20;99.90;;;;;;5072970;28;20119;-64
2022/12/08 09:04:52;;;;;;;4.00;1.60;;;3.20;99.90;;;;;;5074743;28;20032;-63
2022/12/08 09:07:17;;;;;;;4.05;1.77;;;3.20;99.90;;;;;;5064185;28;20037;-64
2022/12/08 09:09:43;;;;;;;4.25;1.40;;;3.30;99.90;;;;;;5071955;28;20158;-63
2022/12/08 09:12:09;;;;;;;4.53;1.70;;;3.30;99.90;;;;;;5067802;28;20055;-64
2022/12/08 09:14:34;;;;;;;3.92;1.20;;;3.20;99.90;;;;;;5072272;28;20115;-63
2022/12/08 09:17:00;;;;;;;2.55;1.42;;;3.20;99.90;;;;;;5068345;28;20195;-63
2022/12/08 09:19:26;;;;;;;2.35;1.40;;;3.30;99.90;;;;;;5066308;28;20129;-63
2022/12/08 09:21:51;;;;;;;3.60;1.60;;;3.30;99.90;;;;;;5046025;28;20040;-64
2022/12/08 09:24:17;;;;;;;2.50;1.38;;;3.20;99.90;;;;;;5071642;28;20192;-64
2022/12/08 09:26:43;;;;;;;3.92;1.55;;;3.20;99.90;;;;;;5070877;28;20119;-63
2022/12/08 09:29:10;;;;;;;3.53;1.40;;;3.20;99.90;;;;;;5073388;28;20036;-63
2022/12/08 09:31:36;;;;;;;5.30;1.42;;;3.20;99.90;;;;;;5072968;28;20028;-63
2022/12/08 09:34:03;;;;;;;3.17;1.70;;;3.20;99.90;;;;;;5071569;28;20036;-64
2022/12/08 09:36:29;;;;;;;3.78;1.40;;;3.20;99.90;;;;;;5073488;28;20040;-63
2022/12/08 09:38:55;;;;;;;3.45;1.50;;;3.20;99.90;;;;;;5073690;28;20123;-64
2022/12/08 09:41:44;;;;;;;2.85;1.60;;;3.20;99.90;;;;;;5077518;28;20112;-64
2022/12/08 09:44:33;;;;;;;5.80;1.40;;;3.20;99.90;;;;;;5073390;28;20045;-64
2022/12/08 09:47:02;;;;;;;6.30;1.38;;;3.20;99.90;;;;;;5072065;28;20036;-64
2022/12/08 09:49:54;;;;;;;3.13;1.70;;;3.20;99.90;;;;;;5070018;28;20401;-64
2022/12/08 09:52:27;;;;;;;1.58;1.25;;;3.20;99.90;;;;;;5058017;28;20048;-64
2022/12/08 09:54:57;;;;;;;3.60;1.42;;;3.20;99.90;;;;;;5071645;28;20037;-64
2022/12/08 09:57:24;;;;;;;3.65;1.30;;;3.30;99.90;;;;;;5066249;28;20414;-63
2022/12/08 09:59:58;;;;;;;2.85;1.33;;;3.30;99.90;;;;;;5050446;28;20036;-64
2022/12/08 10:02:27;;;;;;;5.43;1.60;;;3.30;99.90;;;;;;5036013;28;20047;-63
2022/12/08 10:04:55;;;;;;;2.53;1.38;;;3.30;99.90;;;;;;5067761;28;20036;-64
2022/12/08 10:07:38;;;;;;;2.97;1.48;;;3.40;99.90;;;;;;5048210;28;20494;-63
2022/12/08 10:10:23;;;;;;;3.53;1.63;;;3.40;99.90;;;;;;5045076;28;20048;-63
2022/12/08 10:13:04;;;;;;;7.90;1.95;;;3.40;99.90;;;;;;5070662;28;20033;-64
2022/12/08 10:15:45;;;;;;;4.05;1.63;;;3.50;99.90;;;;;;5053102;28;20084;-64
2022/12/08 10:18:17;;;;;;;4.38;1.70;;;3.50;99.90;;;;;;5069471;28;20040;-64
2022/12/08 10:20:47;;;;;;;3.25;1.80;;;3.50;99.90;;;;;;5073039;28;20037;-64
2022/12/08 10:23:13;;;;;;;3.47;1.92;;;3.50;99.90;;;;;;5071402;28;20036;-64
2022/12/08 10:25:44;;;;;;;2.45;1.90;;;3.50;99.90;;;;;;5072352;28;20047;-63
2022/12/08 10:28:11;;;;;;;4.18;2.20;;;3.50;99.90;;;;;;5071775;28;20040;-63
2022/12/08 10:30:38;;;;;;;6.60;2.50;;;3.50;99.90;;;;;;5072361;28;20064;-64
2022/12/08 10:33:04;;;;;;;6.65;2.17;;;3.50;99.90;;;;;;5035561;28;20087;-64
2022/12/08 10:35:49;;;;;;;3.92;2.50;;;3.50;99.90;;;;;;5067012;28;20036;-64
2022/12/08 10:38:29;;;;;;;6.90;2.83;;;3.50;99.90;;;;;;5066237;28;20059;-64
2022/12/08 10:41:10;;;;;;;4.03;2.60;;;3.50;99.90;;;;;;5073314;28;20048;-64
2022/12/08 10:43:41;;;;;;;6.05;2.88;;;3.50;99.90;;;;;;5077648;28;20036;-64
2022/12/08 10:46:15;;;;;;;6.40;2.80;;;3.50;99.90;;;;;;5068493;28;20124;-64
2022/12/08 10:49:07;;;;;;;5.20;3.13;;;3.50;99.90;;;;;;5060143;28;20048;-64
2022/12/08 10:51:32;;;;;;;8.93;2.92;;;3.40;99.90;;;;;;5063675;28;20512;-65
2022/12/08 10:53:58;;;;;;;5.10;3.17;;;3.40;99.90;;;;;;5069181;28;20335;-64
2022/12/08 10:56:29;;;;;;;6.85;3.30;;;3.40;99.90;;;;;;5052004;28;20039;-64
2022/12/08 10:59:17;;;;;;;6.75;3.50;;;3.40;99.90;;;;;;5053569;28;20402;-64
2022/12/08 11:01:49;;;;;;;9.27;3.50;;;3.40;99.90;;;;;;5045493;28;20036;-64
2022/12/08 11:04:33;;;;;;;8.75;3.55;;;3.40;99.90;;;;;;5069970;28;20089;-64
2022/12/08 11:06:59;;;;;;;5.00;3.13;;;3.40;99.90;;;;;;5070938;28;20107;-64
2022/12/08 11:09:31;;;;;;;4.82;3.33;;;3.40;99.90;;;;;;5071619;28;20112;-64
2022/12/08 11:12:07;;;;;;;6.65;3.65;;;3.40;99.90;;;;;;5070970;28;20037;-64
2022/12/08 11:14:42;;;;;;;6.32;3.22;;;3.40;99.90;;;;;;5070946;28;20048;-64
2022/12/08 11:17:15;;;;;;;5.75;3.53;;;3.40;99.90;;;;;;5063734;28;20254;-64
2022/12/08 11:19:44;;;;;;;11.13;3.90;;;3.40;99.90;;;;;;5070451;28;20059;-64
2022/12/08 11:22:28;;;;;;;7.82;3.70;;;3.40;99.90;;;;;;5066583;28;20043;-64
2022/12/08 11:25:00;;;;;;;5.38;3.63;;;3.40;99.90;;;;;;5066713;28;20131;-64
2022/12/08 11:27:26;;;;;;;7.30;3.60;;;3.40;99.90;;;;;;5067321;28;20127;-64
2022/12/08 11:29:52;;;;;;;5.93;3.45;;;3.40;99.90;;;;;;5045444;28;20108;-64
2022/12/08 11:32:18;;;;;;;6.97;3.60;;;3.40;99.90;;;;;;5054988;28;20101;-64
2022/12/08 11:34:50;;;;;;;5.78;2.95;;;3.40;99.90;;;;;;5080282;28;20070;-64
2022/12/08 11:37:31;;;;;;;8.30;3.88;;;3.40;99.90;;;;;;5064530;28;20076;-64
2022/12/08 11:40:03;;;;;;;6.88;3.60;;;3.40;99.90;;;;;;5068518;28;20593;-64
2022/12/08 11:42:37;;;;;;;4.60;3.25;;;3.40;99.90;;;;;;5068552;28;20036;-64
2022/12/08 11:45:16;;;;;;;6.65;3.58;;;3.40;99.90;;;;;;5072231;28;20094;-64
2022/12/08 11:47:54;;;;;;;4.63;3.10;;;3.40;99.90;;;;;;5067697;28;20507;-65
2022/12/08 11:50:31;;;;;;;6.03;3.08;;;3.40;99.90;;;;;;5049370;28;20094;-64
2022/12/08 11:52:58;;;;;;;4.50;3.00;;;3.40;99.90;;;;;;5061443;28;20136;-64
2022/12/08 11:55:41;;;;;;;3.90;2.70;;;3.30;99.90;;;;;;5045149;28;20098;-65
2022/12/08 11:58:35;;;;;;;4.90;2.95;;;3.30;99.90;;;;;;5070808;28;20062;-64
2022/12/08 12:01:01;;;;;;;5.35;2.67;;;3.30;99.90;;;;;;5078021;28;20411;-65
2022/12/08 12:03:39;;;;;;;4.20;2.92;;;3.30;99.90;;;;;;5068254;28;20040;-63
2022/12/08 12:06:43;;;;;;;4.72;2.83;;;3.30;99.90;;;;;;5071264;28;20052;-64
2022/12/08 12:09:09;;;;;;;4.72;2.85;;;3.20;99.90;;;;;;5071322;28;20036;-63
2022/12/08 12:14:50;;;;;;;3.70;2.75;;;3.20;99.90;;;;;;5070754;28;20636;-64
2022/12/08 12:17:53;;;;;;;5.95;2.92;;;3.20;99.90;;;;;;5065767;28;20076;-63
2022/12/08 12:20:30;;;;;;;8.13;2.97;;;3.20;99.90;;;;;;5071025;28;20047;-64
2022/12/08 12:23:04;;;;;;;4.38;2.90;;;3.30;99.90;;;;;;5072012;28;20040;-64
2022/12/08 12:25:31;;;;;;;7.80;3.13;;;3.50;99.90;;;;;;5070246;28;20090;-64
2022/12/08 12:28:02;;;;;;;6.80;3.28;;;3.60;99.90;;;;;;5069297;28;20055;-64
2022/12/08 12:30:49;;;;;;;6.80;3.00;;;3.70;99.90;;;;;;5070105;28;20094;-64
2022/12/08 12:33:16;;;;;;;4.68;2.90;;;3.80;99.90;;;;;;5077139;28;20644;-64
2022/12/08 12:35:46;;;;;;;5.28;3.70;;;4.10;99.90;;;;;;5056390;28;20044;-64
2022/12/08 12:41:28;;;;;;;5.88;3.70;;;4.40;99.90;;;;;;5081437;28;20111;-64
2022/12/08 12:46:40;;;;;;;6.80;3.90;;;4.90;99.90;;;;;;5053092;28;20414;-72
2022/12/08 12:49:37;;;;;;;4.32;3.72;;;5.00;99.90;;;;;;5051617;28;20044;-72
2022/12/08 12:52:22;;;;;;;7.97;4.45;;;5.10;99.90;;;;;;5038197;28;20048;-72
2022/12/08 12:54:50;;;;;;;7.18;4.22;;;5.20;99.90;;;;;;5048318;28;20041;-72
2022/12/08 12:57:19;;;;;;;7.97;4.68;;;5.30;99.90;;;;;;5051279;28;20079;-72
2022/12/08 12:59:51;;;;;;;8.55;4.53;;;5.20;99.90;;;;;;5058740;28;20075;-72
2022/12/08 13:02:24;;;;;;;7.32;4.40;;;5.10;99.90;;;;;;5053831;28;20045;-72
2022/12/08 13:05:08;;;;;;;6.90;3.80;;;5.00;99.90;;;;;;5062008;28;20489;-71
2022/12/08 13:08:05;;;;;;;8.70;4.65;;;4.90;99.90;;;;;;5070253;28;20040;-73
2022/12/08 13:10:35;;;;;;;6.13;4.10;;;4.80;99.90;;;;;;5053490;28;20037;-73
2022/12/08 13:13:15;;;;;;;8.73;4.20;;;4.70;99.90;;;;;;5030979;28;20116;-72
2022/12/08 13:15:51;;;;;;;9.05;4.53;;;4.70;99.90;;;;;;5055833;28;20037;-73
2022/12/08 13:18:24;;;;;;;8.77;4.18;;;4.70;99.90;;;;;;5067713;28;20567;-73
2022/12/08 13:21:08;;;;;;;8.15;4.22;;;4.60;99.90;;;;;;5041657;28;20290;-73
2022/12/08 13:23:36;;;;;;;9.90;4.50;;;4.60;99.90;;;;;;5057298;28;20119;-73
2022/12/08 13:26:22;;;;;;;5.80;3.67;;;4.60;99.90;;;;;;5058939;28;20070;-73